Time;durP1;ratioP1;P1;durP2;ratioP2;P2;SDS_P1;SDS_P2;PMS_P1;PMS_P2;Temp;Humidity;BMP_temperature;BMP_pressure;BME280_temperature;BME280_humidity;BME280_pressure;Samples;Min_cycle;Max_cycle;Signal;HPM_P1;HPM_P2
2023/01/04 00:00:11;;;;;;;37.00;4.43;;;11.80;99.90;;;;;;5012008;28;20116;-48
2023/01/04 00:02:36;;;;;;;40.13;5.25;;;11.80;99.90;;;;;;5011747;28;20030;-47
2023/01/04 00:05:02;;;;;;;45.95;5.05;;;11.70;99.90;;;;;;5012252;28;20021;-49
2023/01/04 00:07:29;;;;;;;40.38;4.90;;;11.70;99.90;;;;;;4984515;28;20430;-49
2023/01/04 00:09:55;;;;;;;39.35;5.45;;;11.70;99.90;;;;;;4991199;28;20045;-45
2023/01/04 00:12:21;;;;;;;35.75;4.57;;;11.70;99.90;;;;;;5002256;28;20037;-45
2023/01/04 00:14:47;;;;;;;38.85;5.10;;;11.70;99.90;;;;;;4988442;28;20023;-47
2023/01/04 00:17:12;;;;;;;38.60;5.47;;;11.70;99.90;;;;;;4987654;28;20121;-47
2023/01/04 00:19:38;;;;;;;29.77;4.05;;;11.60;99.90;;;;;;4985874;28;20081;-45
2023/01/04 00:22:04;;;;;;;26.45;4.00;;;11.60;99.90;;;;;;4984453;28;20034;-46
2023/01/04 00:24:29;;;;;;;21.88;3.67;;;11.60;99.90;;;;;;4985947;28;20031;-45
2023/01/04 00:26:55;;;;;;;23.23;3.28;;;11.60;99.90;;;;;;4991550;28;20078;-45
2023/01/04 00:29:20;;;;;;;20.27;3.08;;;11.60;99.90;;;;;;4991370;28;20038;-50
2023/01/04 00:31:46;;;;;;;16.10;2.42;;;11.60;99.90;;;;;;4986193;28;20493;-44
2023/01/04 00:34:14;;;;;;;13.35;1.63;;;11.60;99.90;;;;;;4996503;28;20117;-47
2023/01/04 00:36:39;;;;;;;12.63;1.50;;;11.60;99.90;;;;;;4991762;28;20030;-45
2023/01/04 00:39:05;;;;;;;9.80;1.95;;;11.60;99.90;;;;;;4988593;28;20077;-48
2023/01/04 00:41:51;;;;;;;7.32;1.30;;;11.60;99.90;;;;;;4981103;28;20023;-46
2023/01/04 00:44:20;;;;;;;12.45;2.13;;;11.60;99.90;;;;;;4984525;28;20038;-45
2023/01/04 00:46:46;;;;;;;14.20;2.08;;;11.60;99.90;;;;;;4991011;28;20026;-47
2023/01/04 00:49:12;;;;;;;17.33;2.80;;;11.50;99.90;;;;;;4991072;28;20030;-45
2023/01/04 00:51:40;;;;;;;15.50;2.58;;;11.50;99.90;;;;;;4983440;28;20036;-45
2023/01/04 00:54:11;;;;;;;15.50;2.45;;;11.50;99.90;;;;;;4986795;28;20042;-46
2023/01/04 00:56:36;;;;;;;21.23;2.75;;;11.50;99.90;;;;;;4991356;28;20030;-48
2023/01/04 00:59:03;;;;;;;19.00;3.00;;;11.50;99.90;;;;;;4991541;28;20038;-49
2023/01/04 01:01:30;;;;;;;24.15;3.58;;;11.60;99.90;;;;;;4991462;28;20018;-49
2023/01/04 01:03:58;;;;;;;12.63;2.10;;;11.60;99.90;;;;;;4987792;28;20026;-50
2023/01/04 01:06:25;;;;;;;13.50;1.75;;;11.60;99.90;;;;;;4979613;28;20093;-50
2023/01/04 01:08:52;;;;;;;11.85;2.00;;;11.60;99.90;;;;;;4988526;28;20121;-50
2023/01/04 01:11:18;;;;;;;17.77;2.25;;;11.70;99.90;;;;;;4991211;28;20021;-43
2023/01/04 01:13:44;;;;;;;21.73;3.17;;;11.70;99.90;;;;;;4991540;28;20066;-47
2023/01/04 01:16:12;;;;;;;27.77;4.85;;;11.70;99.90;;;;;;4991211;28;20070;-47
2023/01/04 01:18:41;;;;;;;35.53;3.83;;;11.70;99.90;;;;;;4991464;28;20141;-47
2023/01/04 01:21:09;;;;;;;36.65;4.80;;;11.70;99.90;;;;;;4986395;28;20030;-46
2023/01/04 01:23:35;;;;;;;42.17;5.68;;;11.70;99.90;;;;;;4990895;28;20022;-48
2023/01/04 01:26:06;;;;;;;38.92;4.68;;;11.70;99.90;;;;;;4990816;28;20126;-49
2023/01/04 01:28:33;;;;;;;35.55;5.00;;;11.70;99.90;;;;;;4990963;28;20038;-44
2023/01/04 01:31:03;;;;;;;37.50;5.18;;;11.80;99.90;;;;;;4993250;28;20466;-45
2023/01/04 01:33:29;;;;;;;33.03;4.50;;;11.80;99.90;;;;;;5009693;28;20109;-46
2023/01/04 01:35:58;;;;;;;27.75;4.53;;;11.80;99.90;;;;;;5014954;28;20052;-47
2023/01/04 01:38:24;;;;;;;29.63;3.60;;;11.70;99.90;;;;;;5014736;28;20038;-46
2023/01/04 01:40:49;;;;;;;23.60;3.90;;;11.70;99.90;;;;;;5014953;28;20030;-45
2023/01/04 01:43:21;;;;;;;25.15;3.55;;;11.70;99.90;;;;;;5014889;28;20069;-47
2023/01/04 01:45:51;;;;;;;20.02;3.05;;;11.70;99.90;;;;;;5014691;28;20021;-45
2023/01/04 01:48:26;;;;;;;24.80;4.60;;;11.70;99.90;;;;;;5014737;28;20477;-49
2023/01/04 01:51:02;;;;;;;28.45;3.72;;;11.80;99.90;;;;;;5014410;28;20370;-47
2023/01/04 01:53:32;;;;;;;22.95;3.78;;;11.80;99.90;;;;;;5014899;28;20465;-45
2023/01/04 01:55:59;;;;;;;28.92;4.20;;;11.80;99.90;;;;;;4996960;28;20022;-47
2023/01/04 01:58:29;;;;;;;30.13;3.90;;;11.80;99.90;;;;;;4996705;28;20467;-45
2023/01/04 02:00:55;;;;;;;33.67;4.18;;;11.80;99.90;;;;;;5011648;28;20114;-47
2023/01/04 02:03:25;;;;;;;41.85;4.85;;;11.80;99.90;;;;;;5014407;28;20113;-57
2023/01/04 02:05:53;;;;;;;34.15;4.53;;;11.80;99.90;;;;;;5014289;28;20072;-52
2023/01/04 02:08:21;;;;;;;32.22;4.72;;;11.80;99.90;;;;;;5014584;28;20034;-46
2023/01/04 02:10:47;;;;;;;35.88;5.22;;;11.90;99.90;;;;;;5014307;28;20018;-45
2023/01/04 02:13:20;;;;;;;36.63;4.75;;;11.80;99.90;;;;;;5014218;28;20048;-44
2023/01/04 02:16:25;;;;;;;45.42;7.45;;;11.90;99.90;;;;;;5014205;28;20022;-44
2023/01/04 02:19:00;;;;;;;34.80;5.10;;;11.90;99.90;;;;;;4979557;28;20038;-45
2023/01/04 02:21:58;;;;;;;25.25;4.65;;;11.90;99.90;;;;;;5014019;28;20018;-45
2023/01/04 02:25:01;;;;;;;34.30;3.63;;;11.90;99.90;;;;;;5014266;28;20026;-44
2023/01/04 02:27:42;;;;;;;19.60;3.63;;;11.90;99.90;;;;;;4996542;28;20038;-45
2023/01/04 02:30:45;;;;;;;22.95;3.97;;;12.00;99.90;;;;;;5013912;28;20030;-47
2023/01/04 02:33:33;;;;;;;21.55;3.05;;;12.00;99.90;;;;;;5013882;28;20105;-44
2023/01/04 02:36:32;;;;;;;26.50;3.85;;;12.00;99.90;;;;;;4989266;28;20022;-48
2023/01/04 02:39:04;;;;;;;18.77;2.67;;;12.00;99.90;;;;;;5013654;28;20062;-46
2023/01/04 02:41:42;;;;;;;17.40;3.03;;;12.00;99.90;;;;;;5013452;28;20156;-47
2023/01/04 02:47:07;;;;;;;29.27;3.55;;;12.00;99.90;;;;;;5013816;28;20512;-47
2023/01/04 02:52:19;;;;;;;20.80;2.95;;;12.00;99.90;;;;;;5013806;28;20072;-49
2023/01/04 02:54:47;;;;;;;30.88;4.15;;;12.00;99.90;;;;;;5013379;28;20456;-45
2023/01/04 02:57:34;;;;;;;26.10;3.70;;;12.00;99.90;;;;;;5013444;28;20029;-45
2023/01/04 03:00:17;;;;;;;32.28;4.03;;;12.00;99.90;;;;;;5013375;28;20026;-47
2023/01/04 03:08:38;;;;;;;31.33;4.07;;;12.00;99.90;;;;;;5013531;28;20052;-46
2023/01/04 03:14:10;;;;;;;40.10;4.35;;;11.90;99.90;;;;;;4992185;28;20061;-44
2023/01/04 03:16:38;;;;;;;29.38;4.28;;;11.90;99.90;;;;;;5012937;28;20018;-45
2023/01/04 03:19:08;;;;;;;26.42;3.95;;;11.90;99.90;;;;;;5012997;28;20481;-49
2023/01/04 03:21:36;;;;;;;35.47;4.80;;;11.80;99.90;;;;;;5012984;28;20238;-45
2023/01/04 03:35:49;;;;;;;21.23;3.75;;;11.70;99.90;;;;;;5012714;28;20503;-45
2023/01/04 03:50:30;;;;;;;32.65;4.85;;;11.70;99.90;;;;;;5012856;28;20091;-49
2023/01/04 03:53:01;;;;;;;32.15;4.10;;;11.70;99.90;;;;;;5012312;28;20465;-54
2023/01/04 03:55:29;;;;;;;35.30;4.57;;;11.80;99.90;;;;;;5008870;28;20639;-49
2023/01/04 03:57:56;;;;;;;37.15;5.53;;;11.70;99.90;;;;;;4974485;28;20026;-45
2023/01/04 04:00:22;;;;;;;40.75;6.00;;;11.70;99.90;;;;;;4992375;28;20026;-48
2023/01/04 04:02:48;;;;;;;39.03;5.80;;;11.80;99.90;;;;;;4992798;28;20037;-49
2023/01/04 04:10:49;;;;;;;46.65;7.07;;;11.80;99.90;;;;;;4992856;28;20041;-46
2023/01/04 04:13:14;;;;;;;36.97;5.50;;;11.80;99.90;;;;;;4992293;28;20026;-44
2023/01/04 04:15:41;;;;;;;49.78;6.57;;;11.80;99.90;;;;;;4992541;28;20026;-52
2023/01/04 04:18:07;;;;;;;57.75;7.43;;;11.80;99.90;;;;;;4992311;28;20046;-50
2023/01/04 04:20:33;;;;;;;42.78;5.88;;;11.80;99.90;;;;;;4992397;28;20496;-46
2023/01/04 04:22:59;;;;;;;46.92;6.50;;;11.80;99.90;;;;;;4992338;28;20038;-47
2023/01/04 04:25:24;;;;;;;47.30;6.40;;;11.80;99.90;;;;;;4992226;28;20025;-46
2023/01/04 04:27:50;;;;;;;50.45;7.13;;;11.80;99.90;;;;;;4992133;28;20046;-52
2023/01/04 04:30:16;;;;;;;50.33;6.50;;;11.90;99.90;;;;;;4992024;28;20022;-48
2023/01/04 04:32:42;;;;;;;49.80;6.07;;;11.90;99.90;;;;;;4992225;28;20062;-54
2023/01/04 04:35:08;;;;;;;48.20;9.15;;;11.80;99.90;;;;;;4992110;28;20433;-46
2023/01/04 04:37:33;;;;;;;56.13;8.20;;;11.90;99.90;;;;;;4991883;28;20026;-48
2023/01/04 04:40:00;;;;;;;49.22;6.82;;;11.90;99.90;;;;;;4992203;28;20375;-47
2023/01/04 04:42:25;;;;;;;46.38;6.53;;;11.80;99.90;;;;;;4991862;28;20026;-46
2023/01/04 04:44:51;;;;;;;60.58;9.75;;;11.90;99.90;;;;;;4992038;28;20034;-44
2023/01/04 04:47:17;;;;;;;62.03;7.32;;;11.90;99.90;;;;;;4991866;28;20018;-45
2023/01/04 04:49:42;;;;;;;62.92;7.32;;;11.90;99.90;;;;;;4974096;28;20038;-44
2023/01/04 04:52:08;;;;;;;52.17;8.70;;;11.90;99.90;;;;;;4991606;28;20030;-46
2023/01/04 04:54:34;;;;;;;64.35;7.75;;;11.90;99.90;;;;;;4974458;28;20409;-46
2023/01/04 04:56:59;;;;;;;49.47;6.75;;;11.90;99.90;;;;;;4974457;28;20026;-45
2023/01/04 04:59:25;;;;;;;62.38;8.38;;;11.90;99.90;;;;;;4991510;28;20088;-44
2023/01/04 05:01:50;;;;;;;60.58;8.38;;;12.00;99.90;;;;;;4991630;28;20030;-45
2023/01/04 05:04:18;;;;;;;47.72;6.25;;;12.00;99.90;;;;;;4991461;28;20092;-43
2023/01/04 05:06:45;;;;;;;54.00;7.72;;;12.00;99.90;;;;;;4991209;28;20045;-44
2023/01/04 05:09:12;;;;;;;52.45;7.25;;;12.00;99.90;;;;;;4991452;28;20076;-48
2023/01/04 05:14:23;;;;;;;58.10;7.72;;;12.00;99.90;;;;;;4991745;28;20045;-43
2023/01/04 05:16:48;;;;;;;52.03;6.90;;;12.00;99.90;;;;;;4991536;28;20026;-43
2023/01/04 05:19:14;;;;;;;51.65;6.72;;;12.00;99.90;;;;;;4991178;28;20034;-43
2023/01/04 05:21:40;;;;;;;38.75;7.00;;;12.10;99.90;;;;;;4991606;28;20022;-45
2023/01/04 05:24:06;;;;;;;61.90;7.78;;;12.10;99.90;;;;;;4991534;28;20077;-51
2023/01/04 05:26:32;;;;;;;50.72;6.60;;;12.10;99.90;;;;;;4991208;28;20042;-45
2023/01/04 05:28:57;;;;;;;44.40;6.25;;;12.10;99.90;;;;;;4991377;28;20134;-49
2023/01/04 05:31:24;;;;;;;55.13;6.90;;;12.10;99.90;;;;;;4991112;28;20072;-46
2023/01/04 05:33:50;;;;;;;44.55;6.75;;;12.20;99.90;;;;;;4991421;28;20374;-47
2023/01/04 05:36:16;;;;;;;49.92;6.75;;;12.20;99.90;;;;;;4991377;28;20466;-47
2023/01/04 05:38:41;;;;;;;55.15;6.30;;;12.20;99.90;;;;;;4973698;28;20529;-54
2023/01/04 05:42:23;;;;;;;44.05;6.60;;;12.20;99.90;;;;;;4991333;28;20489;-50
2023/01/04 05:43:53;;;;;;;38.55;5.95;;;12.20;99.90;;;;;;4991094;28;20125;-43
2023/01/04 05:46:18;;;;;;;60.05;6.18;;;12.20;99.90;;;;;;4991099;28;20173;-46
2023/01/04 05:48:44;;;;;;;38.95;4.68;;;12.20;99.90;;;;;;4991209;28;20019;-47
2023/01/04 05:51:10;;;;;;;33.67;6.75;;;12.20;99.90;;;;;;4991294;28;20026;-44
2023/01/04 05:53:35;;;;;;;56.75;6.15;;;12.20;99.90;;;;;;4990914;28;20030;-48
2023/01/04 05:56:01;;;;;;;45.15;7.07;;;12.20;99.90;;;;;;4991024;28;20033;-47
2023/01/04 05:58:26;;;;;;;43.88;7.30;;;12.20;99.90;;;;;;4990927;28;20044;-50
2023/01/04 06:00:53;;;;;;;45.78;6.95;;;12.10;99.90;;;;;;4991011;28;20018;-46
2023/01/04 06:03:18;;;;;;;51.75;8.18;;;12.10;99.90;;;;;;4991251;28;20050;-47
2023/01/04 06:05:48;;;;;;;54.70;6.72;;;12.10;99.90;;;;;;4990775;28;20441;-45
2023/01/04 06:08:14;;;;;;;51.53;6.05;;;12.10;99.90;;;;;;4990842;28;20026;-46
2023/01/04 06:10:40;;;;;;;59.00;6.93;;;12.20;99.90;;;;;;4991131;28;20041;-51
2023/01/04 06:13:05;;;;;;;42.53;6.63;;;12.10;99.90;;;;;;4990691;28;20466;-49
2023/01/04 06:15:31;;;;;;;54.08;6.18;;;12.10;99.90;;;;;;4973539;28;20061;-51
2023/01/04 06:17:56;;;;;;;41.22;5.00;;;12.10;99.90;;;;;;4992522;28;20509;-43
2023/01/04 06:20:22;;;;;;;48.67;6.97;;;12.10;99.90;;;;;;4994670;28;20104;-45
2023/01/04 06:22:48;;;;;;;43.30;5.80;;;12.10;99.90;;;;;;4994541;28;20022;-47
2023/01/04 06:25:13;;;;;;;41.75;6.22;;;12.10;99.90;;;;;;4994455;28;20436;-47
2023/01/04 06:27:39;;;;;;;40.97;5.00;;;12.10;99.90;;;;;;4994397;28;20050;-45
2023/01/04 06:30:05;;;;;;;28.17;5.55;;;12.10;99.90;;;;;;4994384;28;20026;-47
2023/01/04 06:32:31;;;;;;;42.97;4.80;;;12.10;99.90;;;;;;4994308;28;20121;-45
2023/01/04 06:34:56;;;;;;;31.63;4.93;;;12.10;99.90;;;;;;4976607;28;20121;-53
2023/01/04 06:37:22;;;;;;;35.85;4.07;;;12.10;99.90;;;;;;4994223;28;20042;-43
2023/01/04 06:39:48;;;;;;;33.58;3.67;;;12.10;99.90;;;;;;4993991;28;20038;-44
2023/01/04 06:45:17;;;;;;;29.38;4.30;;;12.10;99.90;;;;;;4895879;29;20025;-48
2023/01/04 06:47:43;;;;;;;23.42;3.72;;;12.10;99.90;;;;;;4896004;29;20528;-43
2023/01/04 06:50:10;;;;;;;30.70;4.43;;;12.10;99.90;;;;;;4934073;28;20038;-44
2023/01/04 06:52:35;;;;;;;25.48;4.38;;;12.10;99.90;;;;;;4993950;28;20027;-43
2023/01/04 06:55:01;;;;;;;17.27;2.95;;;12.10;99.90;;;;;;4993891;28;20038;-43
2023/01/04 06:57:27;;;;;;;20.55;3.17;;;12.10;99.90;;;;;;4993897;28;20437;-49
2023/01/04 06:59:52;;;;;;;23.38;3.17;;;12.10;99.90;;;;;;4993746;28;20038;-49
2023/01/04 07:02:18;;;;;;;20.88;3.38;;;12.10;99.90;;;;;;4993650;28;20065;-44
2023/01/04 07:04:44;;;;;;;20.90;4.03;;;12.10;99.90;;;;;;4993711;28;20509;-47
2023/01/04 07:07:10;;;;;;;28.65;3.55;;;12.10;99.90;;;;;;4993700;28;20026;-47
2023/01/04 07:09:36;;;;;;;20.30;2.72;;;12.10;99.90;;;;;;4993366;28;20034;-46
2023/01/04 07:12:01;;;;;;;17.05;2.55;;;12.10;99.90;;;;;;4993737;28;20096;-47
2023/01/04 07:14:27;;;;;;;22.83;2.80;;;12.10;99.90;;;;;;4993363;28;20412;-47
2023/01/04 07:16:53;;;;;;;28.33;3.03;;;12.10;99.90;;;;;;4993604;28;20019;-46
2023/01/04 07:19:18;;;;;;;14.43;2.38;;;12.10;99.90;;;;;;4993471;28;20034;-47
2023/01/04 07:21:44;;;;;;;17.13;2.20;;;12.10;99.90;;;;;;4993300;28;20130;-51
2023/01/04 07:24:10;;;;;;;22.27;2.95;;;12.00;99.90;;;;;;4993065;28;20034;-51
2023/01/04 07:26:35;;;;;;;15.48;1.95;;;12.10;99.90;;;;;;4993239;28;20046;-46
2023/01/04 07:29:13;;;;;;;15.88;2.25;;;12.10;99.90;;;;;;4993057;28;20410;-51
2023/01/04 07:31:39;;;;;;;15.55;3.72;;;12.10;99.90;;;;;;4993160;28;20033;-50
2023/01/04 07:34:04;;;;;;;11.75;2.05;;;12.10;99.90;;;;;;4993075;28;20374;-51
2023/01/04 07:36:30;;;;;;;16.05;2.85;;;12.00;99.90;;;;;;4992985;28;20480;-45
2023/01/04 07:38:59;;;;;;;15.95;2.70;;;12.10;99.90;;;;;;4992920;28;20030;-52
2023/01/04 07:41:24;;;;;;;12.93;2.50;;;12.00;99.90;;;;;;4993036;28;20027;-49
2023/01/04 07:43:50;;;;;;;14.32;2.55;;;12.10;99.90;;;;;;4992925;28;20023;-50
2023/01/04 07:46:15;;;;;;;19.45;2.35;;;12.00;99.90;;;;;;4993038;28;20393;-47
2023/01/04 07:48:41;;;;;;;13.40;2.63;;;12.00;99.90;;;;;;4992623;28;20100;-47
2023/01/04 07:51:07;;;;;;;14.23;2.05;;;12.00;99.90;;;;;;4992763;28;20030;-55
2023/01/04 07:53:33;;;;;;;11.43;2.05;;;12.00;99.90;;;;;;4992578;28;20026;-53
2023/01/04 07:55:58;;;;;;;17.98;2.78;;;12.00;99.90;;;;;;4992985;28;20018;-48
2023/01/04 07:58:25;;;;;;;19.27;2.55;;;12.00;99.90;;;;;;4992621;28;20117;-47
2023/01/04 08:00:51;;;;;;;14.90;2.05;;;12.00;99.90;;;;;;4991204;28;20454;-48
2023/01/04 08:03:17;;;;;;;7.80;1.60;;;12.00;99.90;;;;;;4992421;28;20034;-44
2023/01/04 08:05:43;;;;;;;17.45;2.13;;;12.00;99.90;;;;;;4986083;28;20034;-44
2023/01/04 08:08:08;;;;;;;11.63;2.00;;;11.90;99.90;;;;;;4984021;28;20030;-46
2023/01/04 08:10:35;;;;;;;15.02;2.20;;;11.90;99.90;;;;;;4991979;28;20026;-45
2023/01/04 08:13:00;;;;;;;16.50;2.60;;;11.90;99.90;;;;;;4992350;28;20027;-44
2023/01/04 08:15:26;;;;;;;16.75;2.33;;;12.00;99.90;;;;;;4992157;28;20037;-45
2023/01/04 08:17:52;;;;;;;17.20;2.00;;;11.90;99.90;;;;;;4992020;28;20027;-44
2023/01/04 08:20:18;;;;;;;17.45;2.20;;;11.90;99.90;;;;;;4991892;28;20088;-43
2023/01/04 08:22:43;;;;;;;20.77;2.30;;;11.90;99.90;;;;;;4991956;28;20061;-56
2023/01/04 08:25:09;;;;;;;16.98;2.83;;;11.90;99.90;;;;;;4991904;28;20478;-45
2023/01/04 08:27:35;;;;;;;13.90;2.20;;;11.90;99.90;;;;;;4991953;28;20474;-49
2023/01/04 08:30:01;;;;;;;18.08;2.47;;;11.90;99.90;;;;;;4974670;28;20023;-56
2023/01/04 08:32:26;;;;;;;20.45;3.00;;;11.90;99.90;;;;;;4991684;28;20026;-48
2023/01/04 08:34:53;;;;;;;20.50;3.67;;;11.90;99.90;;;;;;4974262;28;20058;-51
2023/01/04 08:37:19;;;;;;;19.13;2.65;;;11.90;99.90;;;;;;4992022;28;20027;-44
2023/01/04 08:39:44;;;;;;;18.60;4.18;;;11.80;99.90;;;;;;4991090;28;20038;-44
2023/01/04 08:42:10;;;;;;;16.67;3.25;;;11.90;99.90;;;;;;4991946;28;20018;-47
2023/01/04 08:44:36;;;;;;;22.67;4.53;;;11.90;99.90;;;;;;4991939;28;20435;-50
2023/01/04 08:47:02;;;;;;;20.38;2.95;;;11.90;99.90;;;;;;4991418;28;20111;-46
2023/01/04 08:49:27;;;;;;;24.73;3.63;;;11.90;99.90;;;;;;4988335;28;20101;-52
2023/01/04 08:51:53;;;;;;;18.52;3.03;;;11.80;99.90;;;;;;4991664;28;20019;-45
2023/01/04 08:54:19;;;;;;;24.42;3.35;;;11.90;99.90;;;;;;4971453;28;20435;-46
2023/01/04 08:56:44;;;;;;;17.05;2.67;;;11.90;99.90;;;;;;4991416;28;20113;-46
2023/01/04 08:59:11;;;;;;;14.90;2.60;;;11.90;99.90;;;;;;4982669;28;20050;-44
2023/01/04 09:01:38;;;;;;;18.25;2.35;;;11.80;99.90;;;;;;4984076;28;20029;-47
2023/01/04 09:04:03;;;;;;;16.15;3.53;;;11.80;99.90;;;;;;4992063;28;20085;-44
2023/01/04 09:06:30;;;;;;;15.00;2.35;;;11.90;99.90;;;;;;4989884;28;20030;-51
2023/01/04 09:08:56;;;;;;;10.38;1.80;;;11.80;99.90;;;;;;4985918;28;20026;-44
2023/01/04 09:11:23;;;;;;;9.23;1.63;;;11.80;99.90;;;;;;4990913;28;20018;-45
2023/01/04 09:13:53;;;;;;;13.85;2.10;;;11.90;99.90;;;;;;4991195;28;20037;-46
2023/01/04 09:16:19;;;;;;;12.98;2.28;;;11.80;99.90;;;;;;4987894;28;20040;-54
2023/01/04 09:18:45;;;;;;;10.90;1.90;;;11.80;99.90;;;;;;4990935;28;20070;-46
2023/01/04 09:21:14;;;;;;;17.33;1.90;;;11.90;99.90;;;;;;4990940;28;20026;-45
2023/01/04 09:23:40;;;;;;;12.82;2.30;;;11.90;99.90;;;;;;4991277;28;20173;-44
2023/01/04 09:26:07;;;;;;;16.75;2.63;;;11.90;99.90;;;;;;4990856;28;20470;-46
2023/01/04 09:28:33;;;;;;;16.95;3.72;;;11.90;99.90;;;;;;4991185;28;20077;-44
2023/01/04 09:31:06;;;;;;;16.00;3.15;;;11.90;99.90;;;;;;4983915;28;20023;-44
2023/01/04 09:33:32;;;;;;;15.73;1.98;;;11.90;99.90;;;;;;4989040;28;20474;-47
2023/01/04 09:36:02;;;;;;;20.52;2.40;;;11.90;99.90;;;;;;4991159;28;20026;-45
2023/01/04 09:38:28;;;;;;;20.48;2.88;;;11.90;99.90;;;;;;4984008;28;20027;-46
2023/01/04 09:41:23;;;;;;;11.82;2.17;;;11.90;99.90;;;;;;4972396;28;20042;-44
2023/01/04 09:44:14;;;;;;;13.77;2.50;;;11.90;99.90;;;;;;4978690;28;20027;-47
2023/01/04 09:46:47;;;;;;;15.63;3.35;;;11.90;99.90;;;;;;4978459;28;20035;-45
2023/01/04 09:49:42;;;;;;;15.32;2.45;;;11.90;99.90;;;;;;4988403;28;20172;-44
2023/01/04 09:52:37;;;;;;;11.35;2.25;;;11.90;99.90;;;;;;4989037;28;20042;-50
2023/01/04 09:55:12;;;;;;;16.90;2.58;;;11.90;99.90;;;;;;4994670;28;20038;-46
2023/01/04 09:57:50;;;;;;;19.60;2.90;;;11.90;99.90;;;;;;4994889;28;20029;-46
2023/01/04 10:00:18;;;;;;;24.25;3.95;;;11.90;99.90;;;;;;4992692;28;20034;-44
2023/01/04 10:02:53;;;;;;;23.95;3.33;;;11.90;99.90;;;;;;4981339;28;20113;-47
2023/01/04 10:05:26;;;;;;;31.05;3.65;;;11.90;99.90;;;;;;4993527;28;20026;-50
2023/01/04 10:07:52;;;;;;;24.30;3.30;;;11.90;99.90;;;;;;4994149;28;20053;-46
2023/01/04 10:10:40;;;;;;;19.00;2.55;;;12.00;99.90;;;;;;4993241;28;20034;-49
2023/01/04 10:13:28;;;;;;;17.77;2.80;;;12.00;99.90;;;;;;4993783;28;20149;-45
2023/01/04 10:16:14;;;;;;;19.23;3.22;;;12.00;99.90;;;;;;4994409;28;20073;-48
2023/01/04 10:18:52;;;;;;;21.23;4.03;;;12.10;99.90;;;;;;4994289;28;20125;-44
2023/01/04 10:21:42;;;;;;;23.80;2.90;;;12.00;99.90;;;;;;4990616;28;20466;-44
2023/01/04 10:24:20;;;;;;;29.73;3.63;;;12.00;99.90;;;;;;4994033;28;20022;-49
2023/01/04 10:26:50;;;;;;;23.95;3.13;;;12.00;99.90;;;;;;4994201;28;20133;-44
2023/01/04 10:29:37;;;;;;;24.23;3.78;;;12.10;99.90;;;;;;4994167;28;20034;-49
2023/01/04 10:32:05;;;;;;;31.13;5.15;;;12.10;99.90;;;;;;4994198;28;20038;-47
2023/01/04 10:34:38;;;;;;;29.95;5.03;;;12.10;99.90;;;;;;4994229;28;20018;-46
2023/01/04 10:37:13;;;;;;;35.67;4.05;;;12.20;99.90;;;;;;4994110;28;20541;-46
2023/01/04 10:39:40;;;;;;;21.70;3.17;;;12.20;99.90;;;;;;4993815;28;20474;-43
2023/01/04 10:42:25;;;;;;;28.13;3.53;;;12.30;99.90;;;;;;4993945;28;20303;-50
2023/01/04 10:45:12;;;;;;;25.77;4.22;;;12.20;99.90;;;;;;4993770;28;20073;-46
2023/01/04 10:47:49;;;;;;;31.25;3.80;;;12.30;99.90;;;;;;4980672;28;20041;-44
2023/01/04 10:50:48;;;;;;;27.90;4.22;;;12.30;99.90;;;;;;4980235;28;20479;-47
2023/01/04 10:53:35;;;;;;;31.23;3.72;;;12.30;99.90;;;;;;4987279;28;20093;-47
2023/01/04 10:56:12;;;;;;;25.48;5.13;;;12.40;99.90;;;;;;4977062;28;20042;-44
2023/01/04 10:58:44;;;;;;;32.17;4.05;;;12.40;99.90;;;;;;4979268;28;20067;-49
2023/01/04 11:01:17;;;;;;;27.35;4.35;;;12.50;99.90;;;;;;4976871;28;20030;-46
2023/01/04 11:04:01;;;;;;;34.67;4.95;;;12.50;99.90;;;;;;4977866;28;20390;-52
2023/01/04 11:06:45;;;;;;;32.40;4.80;;;12.50;99.90;;;;;;4992544;28;20029;-44
2023/01/04 11:09:25;;;;;;;33.03;4.57;;;12.60;99.90;;;;;;4978592;28;20027;-47
2023/01/04 11:11:55;;;;;;;32.28;4.38;;;12.70;99.90;;;;;;4975323;28;20035;-44
2023/01/04 11:14:21;;;;;;;31.98;4.72;;;12.70;99.90;;;;;;4976396;28;20443;-48
2023/01/04 11:16:50;;;;;;;38.47;5.10;;;12.60;99.90;;;;;;4974937;28;20077;-44
2023/01/04 11:19:16;;;;;;;31.52;4.45;;;12.70;99.90;;;;;;4987377;28;20042;-46
2023/01/04 11:21:59;;;;;;;32.15;4.55;;;12.70;99.90;;;;;;4993183;28;20034;-45
2023/01/04 11:24:29;;;;;;;25.13;4.63;;;12.70;99.90;;;;;;4993162;28;20486;-47
2023/01/04 11:26:56;;;;;;;31.50;4.97;;;12.70;99.90;;;;;;4993251;28;20518;-50
2023/01/04 11:29:35;;;;;;;35.33;4.53;;;12.70;99.90;;;;;;4988597;28;20034;-44
2023/01/04 11:32:21;;;;;;;35.00;5.38;;;12.70;99.90;;;;;;4989045;28;20022;-55
2023/01/04 11:34:56;;;;;;;29.88;5.25;;;12.70;99.90;;;;;;4992334;28;20038;-49
2023/01/04 11:37:23;;;;;;;29.58;5.07;;;12.60;99.90;;;;;;4991225;28;20022;-49
2023/01/04 11:39:49;;;;;;;33.60;5.38;;;12.70;99.90;;;;;;4992137;28;20081;-44
2023/01/04 11:42:21;;;;;;;30.30;4.80;;;12.60;99.90;;;;;;4989759;28;20429;-50
2023/01/04 11:44:59;;;;;;;29.90;4.72;;;12.60;99.90;;;;;;4992544;28;20034;-45
2023/01/04 11:47:27;;;;;;;31.20;4.63;;;12.60;99.90;;;;;;4986615;28;20536;-48
2023/01/04 11:49:53;;;;;;;32.75;4.53;;;12.60;99.90;;;;;;4992367;28;20026;-44
2023/01/04 11:52:36;;;;;;;34.10;4.38;;;12.60;99.90;;;;;;4979204;28;20026;-46
2023/01/04 11:55:28;;;;;;;31.88;4.40;;;12.60;99.90;;;;;;4989709;28;20022;-52
2023/01/04 11:58:13;;;;;;;28.90;4.32;;;12.70;99.90;;;;;;4987943;28;20022;-51
2023/01/04 12:00:56;;;;;;;34.53;5.22;;;12.70;99.90;;;;;;4992390;28;20036;-46
2023/01/04 12:03:38;;;;;;;25.33;4.00;;;12.70;99.90;;;;;;4981745;28;20517;-45
2023/01/04 12:06:16;;;;;;;30.13;5.38;;;12.70;99.90;;;;;;4991419;28;20536;-44
2023/01/04 12:08:42;;;;;;;33.65;4.85;;;12.80;99.90;;;;;;4992382;28;20185;-44
2023/01/04 12:11:18;;;;;;;23.38;3.80;;;12.80;99.90;;;;;;4991813;28;20105;-48
2023/01/04 12:13:44;;;;;;;21.83;3.90;;;12.80;99.90;;;;;;4992308;28;20049;-50
2023/01/04 12:16:10;;;;;;;30.67;4.88;;;12.80;99.90;;;;;;4991417;28;20034;-44
2023/01/04 12:18:40;;;;;;;24.60;4.18;;;12.80;99.90;;;;;;4992119;28;20165;-45
2023/01/04 12:21:26;;;;;;;23.58;3.95;;;12.70;99.90;;;;;;4991464;28;20417;-44
2023/01/04 12:23:54;;;;;;;34.65;4.40;;;12.70;99.90;;;;;;4990303;28;20054;-47
2023/01/04 12:26:22;;;;;;;29.75;4.47;;;12.70;99.90;;;;;;4989748;28;20043;-48
2023/01/04 12:28:52;;;;;;;26.48;3.85;;;12.80;99.90;;;;;;4990253;28;20034;-47
2023/01/04 12:31:18;;;;;;;32.10;4.68;;;13.00;99.90;;;;;;4989938;28;20030;-44
2023/01/04 12:33:45;;;;;;;23.55;4.57;;;13.20;99.90;;;;;;4990158;28;20029;-47
2023/01/04 12:36:13;;;;;;;23.17;3.78;;;13.30;99.90;;;;;;4990295;28;20030;-50
2023/01/04 12:38:53;;;;;;;27.42;3.92;;;13.40;99.90;;;;;;4991479;28;20030;-47
2023/01/04 12:41:21;;;;;;;26.38;3.88;;;13.30;99.90;;;;;;4992059;28;20038;-50
2023/01/04 12:43:48;;;;;;;24.42;3.95;;;13.30;99.90;;;;;;4991851;28;20019;-49
2023/01/04 12:49:25;;;;;;;20.45;3.60;;;13.10;99.90;;;;;;4980311;28;20057;-48
2023/01/04 12:52:09;;;;;;;25.33;3.60;;;13.00;99.90;;;;;;4991495;28;20026;-50
2023/01/04 12:54:53;;;;;;;28.67;4.30;;;13.10;99.90;;;;;;4991486;28;20465;-45
2023/01/04 12:57:23;;;;;;;25.58;5.00;;;13.10;99.90;;;;;;4991365;28;20030;-51
2023/01/04 13:00:05;;;;;;;31.83;3.97;;;13.00;99.90;;;;;;4991393;28;20041;-44
2023/01/04 13:02:42;;;;;;;31.33;4.45;;;13.00;99.90;;;;;;4990861;28;20053;-50
2023/01/04 13:05:16;;;;;;;28.45;4.65;;;13.00;99.90;;;;;;4987993;28;20131;-55
2023/01/04 13:07:49;;;;;;;31.50;4.60;;;13.00;99.90;;;;;;4991155;28;20065;-45
2023/01/04 13:10:33;;;;;;;36.83;5.32;;;13.00;99.90;;;;;;4991324;28;20022;-50
2023/01/04 13:13:17;;;;;;;33.95;5.20;;;12.80;99.90;;;;;;4991347;28;20030;-45
2023/01/04 13:16:06;;;;;;;29.92;4.88;;;12.70;99.90;;;;;;4991287;28;20027;-44
2023/01/04 13:18:33;;;;;;;40.08;5.28;;;12.60;99.90;;;;;;4979133;28;20108;-52
2023/01/04 13:21:23;;;;;;;34.15;5.00;;;12.60;99.90;;;;;;4991285;28;20042;-44
2023/01/04 13:23:52;;;;;;;37.05;5.78;;;12.60;99.90;;;;;;4972372;28;20399;-48
2023/01/04 13:26:35;;;;;;;35.13;5.40;;;12.60;99.90;;;;;;4990837;28;20042;-51
2023/01/04 13:29:20;;;;;;;37.90;5.10;;;12.60;99.90;;;;;;4991125;28;20478;-48
2023/01/04 13:31:48;;;;;;;37.65;6.40;;;12.50;99.90;;;;;;4991030;28;20035;-44
2023/01/04 13:34:20;;;;;;;41.40;6.53;;;12.60;99.90;;;;;;4991012;28;20065;-47
2023/01/04 13:37:30;;;;;;;39.13;5.55;;;12.50;99.90;;;;;;4990977;28;20058;-43
2023/01/04 13:40:15;;;;;;;44.00;6.20;;;12.50;99.90;;;;;;4975954;28;20581;-44
2023/01/04 13:42:45;;;;;;;41.70;6.10;;;12.50;99.90;;;;;;4973691;28;20026;-47
2023/01/04 13:45:17;;;;;;;46.03;6.97;;;12.50;99.90;;;;;;4987549;28;20504;-44
2023/01/04 13:47:44;;;;;;;32.75;4.75;;;12.50;99.90;;;;;;4990603;28;20026;-46